Winner, SD

11:25 AM CDT on September 23, 2014 (GMT -0500)
Winner | Change Station
CLOSE
Current Station
Airport
Location: Winner,
Elevation: 2031 ft
Nearby Weather Stations

Elev 2031 ft 43.39 °N, 99.84 °W | Updated 32 minutes ago

Overcast
Overcast
63 °F
Feels Like 63 °F
N
17
Wind Variable Wind from SSE
Gusts 23 mph

Today
High -- | Low -- °F
--% Chance of Precip.
Yesterday
High -- | Low -- °F
Precip. -- in
7:27 AM 7:34 PM
Waning Crescent, 0% visible
Pressure 29.94 in
Visibility 10.0 miles
Clouds Overcast 1600 ft
Dew Point 56 °F
Humidity 78%
Rainfall 0.00 in
Snow Depth 1 in
UV 1 out of 12
Pollen 3.40 out of 12
Air Quality Not available.
Flu Activity Not available.
METAR KICR 231553Z AUTO 16015G20KT 10SM OVC016 17/13 A2996 RMK AO2 SLP138 T01720133

More Conditions Fewer Conditions

Pressure 29.94 in
Visibility 10.0 miles
Clouds Overcast 1600 ft
Dew Point 56 °F
Humidity 78%
Rainfall 0.00 in
Snow Depth 1 in
UV 1 out of 12
Pollen 3.40 out of 12
Air Quality Not available.
Flu Activity Not available.
METAR KICR 231553Z AUTO 16015G20KT 10SM OVC016 17/13 A2996 RMK AO2 SLP138 T01720133

More Conditions Fewer Conditions

10-Day Weather Forecast

Almanac

Astronomy

Sep. 23, 2014 Rise Set
Actual Time 7:27 AM CDT 7:34 PM CDT
Civil Twilight 6:59 AM CDT 8:03 PM CDT
Nautical Twilight 6:25 AM CDT 8:36 PM CDT
Astronomical Twilight 5:51 AM CDT 9:10 PM CDT
Moon 6:53 AM CDT 7:14 PM CDT
Length of Visible Light 13h 03m
Length of Day
12h 07m
Tomorrow will be 2m 56s shorter.
Waning Crescent, 0% of the Moon is Illuminated
Today
Waning Crescent
Sep 24
New
Oct 1
First Quarter
Oct 8
Full
Oct 15
Last Quarter

Today's Extremes

State Highs State Lows

Community

WunderPhotos

Upload Photos

1,755,743 photos uploaded!

WunderBlogs® & News

By Dr. Jeff Masters
Director of Meteorology, Weather Underground
By Kari Strenfel
Meteorologist, Weather Underground
By Christopher C. Burt
Weather Historian, Weather Underground
September 23, 2014
September 23, 2014
September 23, 2014

Nearby

Snow Depth

Station Depth Elevation
Blind Park 1 in 6890 ft

Earthquake Activity

City Distance Mag. Time & Date
No recent earthquake activity has been reported nearby.
Minimum magnitude displayed is 2.5.

Coastal Water Temperatures

Place Temperature
No Stations Reporting

Nearby Weather Stations